createdAt,value
2022-07-30T00:01:39.263Z,19.46
2022-07-30T00:06:28.862Z,19.47
2022-07-30T00:11:19.072Z,19.42
2022-07-30T00:16:13.381Z,19.39
2022-07-30T00:21:03.102Z,19.39
2022-07-30T00:25:52.963Z,19.34
2022-07-30T00:30:43.193Z,19.37
2022-07-30T00:35:35.883Z,19.32
2022-07-30T00:40:25.618Z,19.18
2022-07-30T00:45:16.881Z,19.24
2022-07-30T00:50:07.931Z,19.20
2022-07-30T00:55:00.629Z,19.18
2022-07-30T00:59:50.262Z,19.19
2022-07-30T01:04:39.899Z,19.17
2022-07-30T01:09:29.594Z,19.07
2022-07-30T01:14:22.720Z,18.99
2022-07-30T01:19:31.190Z,18.97
2022-07-30T01:24:37.990Z,19.01
2022-07-30T01:29:32.121Z,18.95
2022-07-30T01:34:22.874Z,18.90
2022-07-30T01:39:12.777Z,18.86
2022-07-30T01:44:04.788Z,18.89
2022-07-30T01:48:59.563Z,18.88
2022-07-30T01:53:54.656Z,18.90
2022-07-30T01:58:46.458Z,18.87
2022-07-30T02:03:42.485Z,18.88
2022-07-30T02:08:41.731Z,18.84
2022-07-30T02:13:33.120Z,18.81
2022-07-30T02:18:25.936Z,18.78
2022-07-30T02:23:19.526Z,18.84
2022-07-30T02:28:15.762Z,18.75
2022-07-30T02:33:11.901Z,18.72
2022-07-30T02:38:03.245Z,18.66
2022-07-30T02:42:56.053Z,18.62
2022-07-30T02:47:54.231Z,18.63
2022-07-30T02:52:46.291Z,18.56
2022-07-30T02:57:36.994Z,18.58
2022-07-30T03:02:34.753Z,18.53
2022-07-30T03:07:31.284Z,18.49
2022-07-30T03:12:21.825Z,18.44
2022-07-30T03:17:13.726Z,18.39
2022-07-30T03:22:06.142Z,18.40
2022-07-30T03:27:01.168Z,18.27
2022-07-30T03:31:52.614Z,18.32
2022-07-30T03:36:44.352Z,18.35
2022-07-30T03:41:35.279Z,18.34
2022-07-30T03:46:29.917Z,18.30
2022-07-30T03:51:20.504Z,18.23
2022-07-30T03:56:11.328Z,18.23
2022-07-30T04:01:17.539Z,18.17
2022-07-30T04:06:10.558Z,18.15
2022-07-30T04:11:00.752Z,18.12
2022-07-30T04:16:40.982Z,18.17
2022-07-30T04:21:29.710Z,18.10
2022-07-30T04:26:20.612Z,18.13
2022-07-30T04:31:11.506Z,18.03
2022-07-30T04:36:01.251Z,18.08
2022-07-30T04:40:58.130Z,18.12
2022-07-30T04:45:50.197Z,18.13
2022-07-30T04:50:45.511Z,18.11
2022-07-30T04:55:38.771Z,18.11
2022-07-30T05:00:32.622Z,18.17
2022-07-30T05:05:24.281Z,18.20
2022-07-30T05:10:15.759Z,18.22
2022-07-30T05:15:06.392Z,18.21
2022-07-30T05:19:58.907Z,18.20
2022-07-30T05:24:51.181Z,18.24
2022-07-30T05:29:40.931Z,18.25
2022-07-30T05:34:35.796Z,18.29
2022-07-30T05:39:28.071Z,18.25
2022-07-30T05:44:43.924Z,18.28
2022-07-30T05:49:37.118Z,18.25
2022-07-30T05:54:37.372Z,18.30
2022-07-30T05:59:47.531Z,18.33
2022-07-30T06:04:47.080Z,18.39
2022-07-30T06:09:39.973Z,18.38
2022-07-30T06:14:32.241Z,18.31
2022-07-30T06:19:22.337Z,18.37
2022-07-30T06:24:16.662Z,18.44
2022-07-30T06:29:19.858Z,18.49
2022-07-30T06:34:13.515Z,18.52
2022-07-30T06:39:05.892Z,18.55
2022-07-30T06:44:27.663Z,18.61
2022-07-30T06:49:36.927Z,18.58
2022-07-30T06:54:27.705Z,18.67
2022-07-30T06:59:17.407Z,18.74
2022-07-30T07:04:10.798Z,18.80
2022-07-30T07:09:02.545Z,18.85
2022-07-30T07:14:04.936Z,18.84
2022-07-30T07:18:58.709Z,18.94
2022-07-30T07:23:54.223Z,18.99
2022-07-30T07:29:05.119Z,19.06
2022-07-30T07:33:57.152Z,19.05
2022-07-30T07:38:47.408Z,19.10
2022-07-30T07:43:40.637Z,19.11
2022-07-30T07:48:33.646Z,19.13
2022-07-30T07:53:40.456Z,19.22
2022-07-30T07:58:31.094Z,19.29
2022-07-30T08:03:26.555Z,19.40
2022-07-30T08:08:17.939Z,19.56
2022-07-30T08:13:48.970Z,19.90
2022-07-30T08:18:57.135Z,20.30
2022-07-30T08:23:57.368Z,20.51
2022-07-30T08:28:47.090Z,20.91
2022-07-30T08:33:37.051Z,21.06
2022-07-30T08:38:30.149Z,21.25
2022-07-30T08:43:21.511Z,21.49
2022-07-30T08:48:16.668Z,21.74
2022-07-30T08:53:09.623Z,22.03
2022-07-30T08:58:03.194Z,22.34
2022-07-30T09:02:53.289Z,22.47
2022-07-30T09:07:44.050Z,22.79
2022-07-30T09:12:43.151Z,22.97
2022-07-30T09:17:53.421Z,23.29
2022-07-30T09:22:46.327Z,23.62
2022-07-30T09:27:54.574Z,24.05
2022-07-30T09:33:05.678Z,24.36
2022-07-30T09:38:18.051Z,24.67
2022-07-30T09:43:12.504Z,24.98
2022-07-30T09:48:24.048Z,25.28
2022-07-30T09:53:15.916Z,25.44
2022-07-30T09:58:07.495Z,25.52
2022-07-30T10:03:00.488Z,25.99
2022-07-30T10:08:23.745Z,26.36
2022-07-30T10:13:20.503Z,26.72
2022-07-30T10:18:13.637Z,27.03
2022-07-30T10:23:29.784Z,27.21
2022-07-30T10:29:02.605Z,27.47
2022-07-30T10:33:53.093Z,27.66
2022-07-30T10:38:52.668Z,27.67
2022-07-30T10:44:09.116Z,27.53
2022-07-30T10:49:11.817Z,27.34
2022-07-30T10:54:42.777Z,26.95
2022-07-30T11:00:05.666Z,26.74
2022-07-30T11:05:44.185Z,26.49
2022-07-30T11:10:44.033Z,26.40
2022-07-30T11:15:57.484Z,26.37
2022-07-30T11:21:21.279Z,26.37
2022-07-30T11:26:50.725Z,26.14
2022-07-30T11:31:56.687Z,25.93
2022-07-30T11:37:19.093Z,25.72
2022-07-30T11:42:31.491Z,25.53
2022-07-30T11:47:22.575Z,25.38
2022-07-30T11:52:12.451Z,25.31
2022-07-30T11:57:04.638Z,25.21
2022-07-30T12:02:03.118Z,25.16
2022-07-30T12:06:55.547Z,25.13
2022-07-30T12:11:45.395Z,25.25
2022-07-30T12:16:36.403Z,25.48
2022-07-30T12:21:29.238Z,25.64
2022-07-30T12:26:27.411Z,25.82
2022-07-30T12:31:18.930Z,26.05
2022-07-30T12:36:10.415Z,26.37
2022-07-30T12:41:05.380Z,26.45
2022-07-30T12:46:01.342Z,26.53
2022-07-30T12:50:51.040Z,26.59
2022-07-30T12:55:47.221Z,26.68
2022-07-30T13:00:52.332Z,26.84
2022-07-30T13:05:46.893Z,26.85
2022-07-30T13:10:36.979Z,26.83
2022-07-30T13:15:26.736Z,26.77
2022-07-30T13:20:21.205Z,26.80
2022-07-30T13:25:12.909Z,26.87
2022-07-30T13:30:02.660Z,27.02
2022-07-30T13:34:52.302Z,27.21
2022-07-30T13:39:44.778Z,27.30
2022-07-30T13:44:34.476Z,27.21
2022-07-30T13:49:24.343Z,27.38
2022-07-30T13:54:20.609Z,27.60
2022-07-30T13:59:13.149Z,27.58
2022-07-30T14:04:02.903Z,27.78
2022-07-30T14:08:52.619Z,27.88
2022-07-30T14:13:42.494Z,27.92
2022-07-30T14:18:34.906Z,28.02
2022-07-30T14:23:27.154Z,28.05
2022-07-30T14:28:16.857Z,28.18
2022-07-30T14:33:06.673Z,28.00
2022-07-30T14:37:59.011Z,27.70
2022-07-30T14:42:49.255Z,27.48
2022-07-30T14:47:39.466Z,27.29
2022-07-30T14:52:29.246Z,27.19
2022-07-30T14:57:21.832Z,27.10
2022-07-30T15:02:11.741Z,26.97
2022-07-30T15:07:02.129Z,26.85
2022-07-30T15:12:08.260Z,26.74
2022-07-30T15:17:08.916Z,26.57
2022-07-30T15:21:59.133Z,26.45
2022-07-30T15:26:48.928Z,26.37
2022-07-30T15:31:39.280Z,26.33
2022-07-30T15:36:31.959Z,26.27
2022-07-30T15:41:21.879Z,26.27
2022-07-30T15:46:11.957Z,26.25
2022-07-30T15:51:04.431Z,26.17
2022-07-30T15:55:56.780Z,26.15
2022-07-30T16:00:46.721Z,26.12
2022-07-30T16:05:52.354Z,26.16
2022-07-30T16:10:43.283Z,26.12
2022-07-30T16:15:35.668Z,26.13
2022-07-30T16:20:25.432Z,26.18
2022-07-30T16:25:15.410Z,26.11
2022-07-30T16:30:05.466Z,26.05
2022-07-30T16:34:57.714Z,26.07
2022-07-30T16:39:47.487Z,26.11
2022-07-30T16:44:37.455Z,26.13
2022-07-30T16:49:28.497Z,26.17
2022-07-30T16:54:23.924Z,26.07
2022-07-30T16:59:14.542Z,26.05
2022-07-30T17:04:04.342Z,26.02
2022-07-30T17:08:57.380Z,25.94
2022-07-30T17:13:50.289Z,25.94
2022-07-30T17:18:40.135Z,25.92
2022-07-30T17:23:30.460Z,25.88
2022-07-30T17:28:26.993Z,25.86
2022-07-30T17:33:19.813Z,25.92
2022-07-30T17:38:10.047Z,25.92
2022-07-30T17:43:04.069Z,25.83
2022-07-30T17:47:54.239Z,25.79
2022-07-30T17:52:46.708Z,25.72
2022-07-30T17:57:36.308Z,25.63
2022-07-30T18:02:31.852Z,25.48
2022-07-30T18:07:22.558Z,25.45
2022-07-30T18:12:21.255Z,25.50
2022-07-30T18:17:14.419Z,25.49
2022-07-30T18:22:04.883Z,25.54
2022-07-30T18:26:56.524Z,25.53
2022-07-30T18:31:49.011Z,25.53
2022-07-30T18:36:38.678Z,25.50
2022-07-30T18:41:30.110Z,25.48
2022-07-30T18:46:21.244Z,25.39
2022-07-30T18:51:14.244Z,25.32
2022-07-30T18:56:04.637Z,25.29
2022-07-30T19:00:54.405Z,25.20
2022-07-30T19:05:44.579Z,25.17
2022-07-30T19:10:37.560Z,25.17
2022-07-30T19:15:31.499Z,25.13
2022-07-30T19:20:22.514Z,25.07
2022-07-30T19:25:13.316Z,25.02
2022-07-30T19:30:06.433Z,25.00
2022-07-30T19:34:56.462Z,24.91
2022-07-30T19:40:06.457Z,24.91
2022-07-30T19:44:57.798Z,24.84
2022-07-30T19:49:55.568Z,24.77
2022-07-30T19:54:47.108Z,24.67
2022-07-30T19:59:45.547Z,24.60
2022-07-30T20:04:46.775Z,24.56
2022-07-30T20:09:42.666Z,24.54
2022-07-30T20:14:33.327Z,24.45
2022-07-30T20:19:26.414Z,24.44
2022-07-30T20:24:25.792Z,24.43
2022-07-30T20:29:19.201Z,24.31
2022-07-30T20:34:16.222Z,24.19
2022-07-30T20:39:18.394Z,24.08
2022-07-30T20:44:14.947Z,23.98
2022-07-30T20:49:24.323Z,23.87
2022-07-30T20:54:25.449Z,23.72
2022-07-30T20:59:16.529Z,23.63
2022-07-30T21:04:07.873Z,23.50
2022-07-30T21:09:01.340Z,23.45
2022-07-30T21:13:51.156Z,23.36
2022-07-30T21:18:41.666Z,23.32
2022-07-30T21:23:38.627Z,23.36
2022-07-30T21:28:35.461Z,23.32
2022-07-30T21:33:31.239Z,23.26
2022-07-30T21:38:21.745Z,23.22
2022-07-30T21:43:13.309Z,23.15
2022-07-30T21:48:05.510Z,23.08
2022-07-30T21:52:55.125Z,23.14
2022-07-30T21:57:44.744Z,23.07
2022-07-30T22:02:34.440Z,23.01
2022-07-30T22:07:26.924Z,23.01
2022-07-30T22:12:18.071Z,23.01
2022-07-30T22:17:22.860Z,22.94
2022-07-30T22:22:27.350Z,22.94
2022-07-30T22:27:21.937Z,22.89
2022-07-30T22:32:11.738Z,22.88
2022-07-30T22:37:01.973Z,22.83
2022-07-30T22:41:51.850Z,22.81
2022-07-30T22:46:44.091Z,22.84
2022-07-30T22:52:01.858Z,22.77
2022-07-30T22:56:46.076Z,22.73
2022-07-30T23:01:38.954Z,22.69
2022-07-30T23:06:35.272Z,22.68
2022-07-30T23:11:24.911Z,22.53
2022-07-30T23:16:26.827Z,22.47
2022-07-30T23:21:16.858Z,22.45
2022-07-30T23:26:09.476Z,22.39
2022-07-30T23:30:59.484Z,22.39
2022-07-30T23:35:49.410Z,22.39
2022-07-30T23:40:39.056Z,22.36
2022-07-30T23:45:31.440Z,22.35
2022-07-30T23:50:21.243Z,22.19
2022-07-30T23:55:12.017Z,22.29
